Time;durP1;ratioP1;P1;durP2;ratioP2;P2;SDS_P1;SDS_P2;PMS_P1;PMS_P2;Temp;Humidity;BMP_temperature;BMP_pressure;BME280_temperature;BME280_humidity;BME280_pressure;Samples;Min_cycle;Max_cycle;Signal;HPM_P1;HPM_P2
2023/10/14 00:01:06;;;;;;;26.27;14.68;;;;;;;14.85;100.00;101173.28;5115138;27;19922;-74
2023/10/14 00:03:35;;;;;;;20.33;15.48;;;;;;;14.40;100.00;101098.53;5121537;27;20027;-74
2023/10/14 00:06:08;;;;;;;21.33;16.00;;;;;;;14.86;100.00;101172.38;5114420;28;20399;-76
2023/10/14 00:08:35;;;;;;;26.92;19.65;;;;;;;14.85;100.00;101214.25;5113966;28;20027;-76
2023/10/14 00:11:06;;;;;;;29.45;19.70;;;;;;;14.96;100.00;101209.69;5114981;28;20028;-74
2023/10/14 00:13:37;;;;;;;28.33;20.77;;;;;;;15.12;100.00;101219.50;5114647;28;20020;-75
2023/10/14 00:16:07;;;;;;;25.05;20.90;;;;;;;14.44;100.00;101153.88;5114748;28;20042;-74
2023/10/14 00:18:33;;;;;;;26.73;21.65;;;;;;;14.56;100.00;101158.66;5113518;28;20517;-75
2023/10/14 00:20:58;;;;;;;29.92;22.80;;;;;;;14.10;100.00;101091.59;5114398;28;20023;-76
2023/10/14 00:23:26;;;;;;;29.70;20.80;;;;;;;15.10;100.00;101198.19;5115105;28;20026;-75
2023/10/14 00:25:54;;;;;;;27.63;21.33;;;;;;;14.95;100.00;101226.78;5114830;28;20034;-77
2023/10/14 00:28:19;;;;;;;27.63;20.08;;;;;;;14.63;100.00;101099.59;5114783;28;20080;-75
2023/10/14 00:30:46;;;;;;;26.85;20.80;;;;;;;14.77;100.00;101201.66;5114586;28;20036;-74
2023/10/14 00:33:12;;;;;;;23.80;20.02;;;;;;;15.11;100.00;101202.47;5114260;28;20052;-74
2023/10/14 00:35:40;;;;;;;23.60;20.23;;;;;;;14.72;100.00;101142.88;5114417;28;20023;-75
2023/10/14 00:38:10;;;;;;;29.65;21.17;;;;;;;15.02;100.00;101196.72;5113952;28;20084;-74
2023/10/14 00:40:38;;;;;;;26.02;20.77;;;;;;;14.64;100.00;101152.47;5113839;28;20513;-74
2023/10/14 00:43:06;;;;;;;25.38;20.02;;;;;;;14.57;100.00;101155.22;5114206;28;20486;-75
2023/10/14 00:45:31;;;;;;;25.35;18.33;;;;;;;14.64;100.00;101151.63;5113977;28;20032;-74
2023/10/14 00:47:59;;;;;;;21.23;17.70;;;;;;;14.73;100.00;101126.66;5114011;28;20027;-75
2023/10/14 00:50:35;;;;;;;21.25;16.75;;;;;;;14.91;100.00;101199.56;5113101;28;20080;-75
2023/10/14 00:53:05;;;;;;;20.80;15.48;;;;;;;14.77;100.00;101137.66;5113568;28;20032;-80
2023/10/14 00:55:54;;;;;;;20.35;15.00;;;;;;;14.69;100.00;101199.28;5112600;28;20034;-77
2023/10/14 00:58:28;;;;;;;21.52;14.27;;;;;;;14.37;100.00;101067.88;5113690;28;20325;-75
2023/10/14 01:01:00;;;;;;;18.50;13.70;;;;;;;14.64;100.00;101154.19;5111690;28;20035;-77
2023/10/14 01:03:27;;;;;;;20.15;14.45;;;;;;;15.05;100.00;101183.84;5113874;28;20565;-76
2023/10/14 01:05:56;;;;;;;20.67;13.90;;;;;;;14.93;100.00;101177.31;5113028;28;20051;-77
2023/10/14 01:08:24;;;;;;;21.20;12.95;;;;;;;14.85;100.00;101184.38;5114174;28;20041;-77
2023/10/14 01:10:50;;;;;;;17.13;12.20;;;;;;;14.82;100.00;101173.34;5112742;28;20482;-78
2023/10/14 01:13:21;;;;;;;16.27;11.38;;;;;;;14.64;100.00;101174.66;5108402;28;20028;-75
2023/10/14 01:15:49;;;;;;;16.60;10.13;;;;;;;14.15;100.00;101052.22;5092962;28;20084;-73
2023/10/14 01:18:14;;;;;;;15.27;10.82;;;;;;;14.52;100.00;101096.47;5113111;28;20031;-75
2023/10/14 01:20:43;;;;;;;14.77;10.13;;;;;;;14.93;100.00;101149.16;5113232;28;20080;-75
2023/10/14 01:23:16;;;;;;;12.38;9.55;;;;;;;14.51;100.00;101093.97;5108951;28;20031;-76
2023/10/14 01:25:47;;;;;;;14.75;10.15;;;;;;;14.62;100.00;101091.94;5111995;28;20067;-75
2023/10/14 01:28:21;;;;;;;20.08;11.43;;;;;;;14.69;100.00;101096.03;5112828;28;20027;-74
2023/10/14 01:33:50;;;;;;;15.88;11.98;;;;;;;14.87;100.00;101153.59;5097244;28;20567;-75
2023/10/14 01:36:16;;;;;;;18.50;13.20;;;;;;;14.78;100.00;101162.34;5111588;28;20061;-74
2023/10/14 01:38:48;;;;;;;18.30;13.35;;;;;;;14.10;100.00;101101.81;5111339;28;20489;-74
2023/10/14 01:41:14;;;;;;;22.55;14.80;;;;;;;13.99;100.00;101162.56;5113052;28;20028;-75
2023/10/14 01:43:39;;;;;;;22.20;14.77;;;;;;;13.72;100.00;101105.25;5112845;28;20054;-74
2023/10/14 01:46:09;;;;;;;17.95;13.57;;;;;;;13.48;100.00;101080.25;5112363;28;20065;-75
2023/10/14 01:48:38;;;;;;;16.63;12.55;;;;;;;13.67;100.00;101151.38;5113232;28;20020;-75
2023/10/14 01:51:04;;;;;;;17.75;11.40;;;;;;;13.27;100.00;101093.50;5113132;28;20031;-75
2023/10/14 01:53:36;;;;;;;18.50;10.57;;;;;;;13.35;100.00;101097.56;5116898;28;20076;-81
2023/10/14 01:56:06;;;;;;;15.50;10.02;;;;;;;13.69;100.00;101141.09;5118042;28;20034;-78
2023/10/14 01:58:32;;;;;;;11.88;10.15;;;;;;;13.65;100.00;101149.72;5112613;28;20027;-77
2023/10/14 02:03:44;;;;;;;14.93;8.95;;;;;;;13.94;100.00;101148.19;5112533;28;20019;-77
2023/10/14 02:06:16;;;;;;;10.70;9.05;;;;;;;14.18;100.00;101148.50;5112927;28;20140;-75
2023/10/14 02:08:46;;;;;;;15.02;8.95;;;;;;;13.89;100.00;101127.00;5112719;28;20110;-75
2023/10/14 02:11:11;;;;;;;17.20;8.93;;;;;;;13.83;100.00;101128.84;5110240;28;20036;-75
2023/10/14 02:13:37;;;;;;;11.80;8.20;;;;;;;13.54;100.00;101075.00;5112672;28;20084;-75
2023/10/14 02:16:07;;;;;;;13.77;8.95;;;;;;;14.06;100.00;101151.34;5110953;28;20122;-74
2023/10/14 02:18:36;;;;;;;13.85;9.00;;;;;;;13.58;100.00;101080.03;5112435;28;20032;-77
2023/10/14 02:21:05;;;;;;;14.60;8.88;;;;;;;14.17;100.00;101142.53;5112506;28;20027;-77
2023/10/14 02:23:49;;;;;;;13.43;9.20;;;;;;;13.90;100.00;101145.75;5112770;28;20028;-77
2023/10/14 02:26:24;;;;;;;14.35;8.05;;;;;;;14.09;100.00;101157.22;5112775;28;20031;-75
2023/10/14 02:28:52;;;;;;;11.57;7.70;;;;;;;13.64;100.00;101110.56;5110637;28;20035;-72
2023/10/14 02:33:54;;;;;;;12.40;7.20;;;;;;;13.34;100.00;101055.00;5112369;28;20023;-74
2023/10/14 02:36:20;;;;;;;11.85;7.72;;;;;;;13.88;100.00;101158.53;5112241;27;20122;-75
2023/10/14 02:38:56;;;;;;;13.60;8.13;;;;;;;14.05;100.00;101140.28;5111766;28;20473;-74
2023/10/14 02:41:26;;;;;;;14.30;8.13;;;;;;;13.86;100.00;101111.72;5101200;28;20043;-74
2023/10/14 02:46:54;;;;;;;12.73;8.50;;;;;;;13.96;100.00;101162.66;5098706;28;20116;-74
2023/10/14 02:49:24;;;;;;;15.02;8.05;;;;;;;14.01;100.00;101159.13;5113021;28;20418;-72
2023/10/14 02:51:52;;;;;;;11.13;7.95;;;;;;;14.29;100.00;101152.50;5115272;28;20036;-74
2023/10/14 02:54:27;;;;;;;13.38;8.10;;;;;;;13.64;100.00;101085.00;5115873;28;20027;-74
2023/10/14 02:59:35;;;;;;;15.20;9.35;;;;;;;13.61;100.00;101079.94;5115877;28;20034;-75
2023/10/14 03:04:55;;;;;;;12.27;7.90;;;;;;;13.79;100.00;101133.19;5116399;28;20055;-78
2023/10/14 03:07:29;;;;;;;14.45;8.60;;;;;;;13.62;100.00;101114.00;5116263;28;20027;-75
2023/10/14 03:10:09;;;;;;;13.85;8.40;;;;;;;13.76;100.00;101153.75;5114919;28;20550;-75
2023/10/14 03:12:38;;;;;;;13.10;8.27;;;;;;;13.75;100.00;101144.38;5116324;28;20031;-75
2023/10/14 03:15:05;;;;;;;13.38;9.05;;;;;;;13.86;100.00;101144.97;5114696;28;20505;-75
2023/10/14 03:17:41;;;;;;;12.38;8.52;;;;;;;13.67;100.00;101086.63;5114066;28;20035;-75
2023/10/14 03:20:58;;;;;;;14.57;8.98;;;;;;;13.46;100.00;101079.44;5116506;28;20156;-75
2023/10/14 03:23:19;;;;;;;13.20;8.85;;;;;;;13.83;100.00;101150.16;5106366;28;20048;-76
2023/10/14 03:25:51;;;;;;;17.58;9.02;;;;;;;13.43;100.00;101036.91;5116241;28;20486;-76
2023/10/14 03:28:21;;;;;;;13.32;9.52;;;;;;;13.85;100.00;101145.00;5115144;28;20031;-75
2023/10/14 03:30:55;;;;;;;19.63;9.05;;;;;;;13.52;100.00;101084.41;5110533;28;20028;-76
2023/10/14 03:33:21;;;;;;;13.02;8.80;;;;;;;13.70;100.00;101151.31;5114455;28;20450;-78
2023/10/14 03:36:05;;;;;;;16.13;8.90;;;;;;;13.56;100.00;101089.44;5114674;28;20028;-76
2023/10/14 03:41:11;;;;;;;12.15;8.80;;;;;;;13.27;100.00;101159.91;5115095;28;20108;-75
2023/10/14 03:46:12;;;;;;;15.98;9.95;;;;;;;12.89;100.00;101091.69;5115442;28;20417;-75
2023/10/14 03:48:48;;;;;;;16.63;9.23;;;;;;;13.09;100.00;101150.88;5115267;27;20027;-75
2023/10/14 03:51:24;;;;;;;17.85;8.20;;;;;;;13.05;100.00;101083.69;5114075;28;20032;-75
2023/10/14 03:53:52;;;;;;;14.27;8.13;;;;;;;12.99;100.00;101157.00;5115009;28;20023;-75
2023/10/14 03:56:18;;;;;;;10.35;7.18;;;;;;;12.97;100.00;101074.50;5113608;28;20027;-75
2023/10/14 03:58:47;;;;;;;12.48;7.03;;;;;;;13.00;100.00;101121.22;5114463;27;20040;-75
2023/10/14 04:01:13;;;;;;;13.10;6.63;;;;;;;13.07;100.00;101142.41;5114984;28;20085;-75
2023/10/14 04:03:43;;;;;;;15.63;6.90;;;;;;;12.61;100.00;101090.50;5115374;28;20076;-76
2023/10/14 04:06:09;;;;;;;15.02;6.80;;;;;;;12.98;100.00;101143.41;5115298;28;20044;-77
2023/10/14 04:09:10;;;;;;;12.35;6.70;;;;;;;12.20;100.00;101081.06;5114854;27;20059;-74
2023/10/14 04:11:35;;;;;;;13.38;6.38;;;;;;;12.84;100.00;101150.47;5113656;28;20046;-76
2023/10/14 04:14:08;;;;;;;11.27;6.55;;;;;;;12.66;100.00;101101.47;5114120;28;20076;-75
2023/10/14 04:19:27;;;;;;;15.77;6.80;;;;;;;12.63;100.00;101093.88;5102934;28;20043;-75
2023/10/14 04:21:53;;;;;;;12.27;6.60;;;;;;;13.05;100.00;101164.59;5113808;28;20028;-75
2023/10/14 04:24:43;;;;;;;12.80;6.13;;;;;;;12.94;100.00;101158.78;5114107;28;20534;-76
2023/10/14 04:30:11;;;;;;;13.75;6.22;;;;;;;12.89;100.00;101150.38;5094452;28;20465;-74
2023/10/14 04:35:22;;;;;;;16.55;7.57;;;;;;;12.96;100.00;101163.00;5113720;28;20059;-76
2023/10/14 04:37:51;;;;;;;11.60;7.63;;;;;;;12.36;100.00;101096.94;5114141;28;20413;-76
2023/10/14 04:43:10;;;;;;;18.42;8.27;;;;;;;12.85;100.00;101181.94;5114337;28;20070;-76
2023/10/14 04:45:36;;;;;;;14.05;7.40;;;;;;;13.23;100.00;101165.94;5114286;28;20095;-75
2023/10/14 04:48:05;;;;;;;15.10;7.93;;;;;;;12.77;100.00;101131.03;5113834;27;20024;-75
2023/10/14 04:50:31;;;;;;;16.45;8.15;;;;;;;12.47;100.00;101031.25;5113366;28;20477;-75
2023/10/14 04:52:57;;;;;;;16.75;7.70;;;;;;;12.78;100.00;101108.91;5112600;28;20396;-75
2023/10/14 04:55:28;;;;;;;21.15;7.45;;;;;;;13.40;100.00;101161.31;5093352;28;20035;-75
2023/10/14 05:00:42;;;;;;;12.88;8.57;;;;;;;13.23;100.00;101164.19;5093876;28;20006;-80
2023/10/14 05:03:14;;;;;;;26.58;13.40;;;;;;;13.46;100.00;101169.72;5108429;28;20031;-77
2023/10/14 05:05:48;;;;;;;21.05;11.93;;;;;;;13.52;100.00;101115.09;5112257;28;20462;-76
2023/10/14 05:08:21;;;;;;;21.92;8.88;;;;;;;14.07;100.00;101156.41;5113904;28;20031;-75
2023/10/14 05:10:50;;;;;;;18.65;7.82;;;;;;;16.95;100.00;101113.72;5112956;28;20027;-74
2023/10/14 05:13:19;;;;;;;15.95;7.45;;;;;;;18.09;100.00;101088.72;5109318;28;20386;-80
2023/10/14 05:16:04;;;;;;;20.83;9.68;;;;;;;17.48;100.00;101004.56;5092079;28;20036;-77
2023/10/14 05:18:29;;;;;;;18.10;8.63;;;;;;;18.94;100.00;101013.72;5098726;28;20616;-80
2023/10/14 05:21:35;;;;;;;13.07;7.90;;;;;;;19.01;100.00;101027.19;5109136;28;20106;-81
2023/10/14 05:23:59;;;;;;;16.13;8.15;;;;;;;18.80;100.00;101035.88;5112262;28;20557;-75
2023/10/14 05:26:27;;;;;;;15.82;7.38;;;;;;;20.84;100.00;101007.72;5111414;28;20099;-77
2023/10/14 05:28:53;;;;;;;15.85;7.65;;;;;;;19.68;100.00;100950.88;5111525;28;20059;-81
2023/10/14 05:31:18;;;;;;;19.58;7.53;;;;;;;19.52;100.00;100955.13;5113198;28;20059;-80
2023/10/14 05:33:44;;;;;;;15.95;7.32;;;;;;;20.86;100.00;100995.53;5113661;28;20035;-76
2023/10/14 05:36:09;;;;;;;17.38;7.47;;;;;;;20.77;100.00;100924.47;5107740;28;20331;-72
2023/10/14 05:38:35;;;;;;;15.57;7.43;;;;;;;21.34;100.00;100987.69;5092242;28;20155;-73
2023/10/14 05:41:01;;;;;;;17.75;7.95;;;;;;;21.76;100.00;100984.41;5112059;27;20031;-70
2023/10/14 05:43:27;;;;;;;17.15;9.07;;;;;;;20.90;100.00;101010.78;5106675;28;20023;-76
2023/10/14 05:45:53;;;;;;;22.10;11.93;;;;;;;18.81;100.00;100984.28;5112174;28;20526;-76
2023/10/14 05:48:26;;;;;;;23.75;13.48;;;;;;;17.11;100.00;101069.41;5111990;28;20184;-70
2023/10/14 05:50:56;;;;;;;23.40;15.05;;;;;;;16.65;100.00;101097.66;5105921;28;20031;-72
2023/10/14 05:53:28;;;;;;;19.55;14.32;;;;;;;16.42;100.00;101118.09;5111030;28;20122;-75
2023/10/14 05:56:09;;;;;;;20.95;13.10;;;;;;;16.33;100.00;101138.94;5101205;28;20024;-77
2023/10/14 05:58:37;;;;;;;18.65;11.20;;;;;;;16.69;100.00;101129.22;5090205;28;20510;-79
2023/10/14 06:01:09;;;;;;;21.85;10.10;;;;;;;16.38;100.00;101076.31;5106683;28;20084;-74
2023/10/14 06:03:35;;;;;;;19.23;9.40;;;;;;;16.94;100.00;101114.59;5111133;28;20064;-74
2023/10/14 06:06:01;;;;;;;21.58;10.15;;;;;;;17.17;100.00;101086.34;5108674;28;20042;-75
2023/10/14 06:08:27;;;;;;;25.65;14.65;;;;;;;17.58;100.00;101115.66;5110195;28;20032;-73
2023/10/14 06:10:54;;;;;;;25.23;12.88;;;;;;;17.35;100.00;101071.06;5099564;28;20502;-74
2023/10/14 06:13:19;;;;;;;20.17;9.68;;;;;;;18.73;100.00;101062.81;5090508;28;20110;-73
2023/10/14 06:15:46;;;;;;;20.40;9.63;;;;;;;18.73;100.00;101050.78;5090568;28;20089;-71
2023/10/14 06:18:14;;;;;;;26.33;10.68;;;;;;;18.24;100.00;101110.44;5089505;28;20028;-75
2023/10/14 06:20:45;;;;;;;17.02;9.00;;;;;;;17.78;100.00;101064.28;5089973;28;20222;-73
2023/10/14 06:23:10;;;;;;;20.88;8.90;;;;;;;18.01;100.00;101066.75;5089751;28;20075;-74
2023/10/14 06:25:38;;;;;;;16.67;8.77;;;;;;;18.21;100.00;101110.53;5091533;28;20083;-73
2023/10/14 06:28:04;;;;;;;17.38;8.93;;;;;;;18.75;100.00;101100.53;5092734;28;20032;-74
2023/10/14 06:30:30;;;;;;;19.10;7.90;;;;;;;18.94;100.00;101080.75;5104973;28;20031;-75
2023/10/14 06:33:03;;;;;;;13.20;7.43;;;;;;;18.42;100.00;101078.72;5104914;28;20097;-74
2023/10/14 06:35:31;;;;;;;18.08;7.30;;;;;;;19.48;100.00;101079.16;5089795;28;20413;-75
2023/10/14 06:37:58;;;;;;;15.25;8.00;;;;;;;19.08;100.00;101092.19;5108327;28;20032;-72
2023/10/14 06:40:24;;;;;;;13.45;7.60;;;;;;;19.21;100.00;101059.78;5110880;28;20498;-73
2023/10/14 06:42:50;;;;;;;17.52;8.57;;;;;;;19.56;100.00;101088.22;5109143;28;20027;-73
2023/10/14 06:45:20;;;;;;;18.58;7.80;;;;;;;19.65;100.00;101079.19;5110764;28;20159;-73
2023/10/14 06:47:56;;;;;;;16.63;7.22;;;;;;;19.38;100.00;101005.69;5109801;28;20032;-73
2023/10/14 06:50:25;;;;;;;21.13;8.25;;;;;;;19.94;100.00;101077.81;5109715;28;20031;-73
2023/10/14 06:53:00;;;;;;;16.50;8.02;;;;;;;19.80;100.00;101012.22;5111207;28;20040;-72
2023/10/14 06:55:37;;;;;;;13.40;7.35;;;;;;;19.99;100.00;101057.75;5110989;28;20126;-73
2023/10/14 06:58:05;;;;;;;14.48;7.05;;;;;;;20.09;100.00;101062.38;5109842;28;20036;-74
2023/10/14 07:00:31;;;;;;;12.50;6.40;;;;;;;20.44;100.00;101045.97;5111102;28;20028;-74
2023/10/14 07:02:59;;;;;;;21.73;6.05;;;;;;;19.99;100.00;101052.59;5110558;28;20023;-73
2023/10/14 07:05:27;;;;;;;17.45;6.53;;;;;;;20.14;100.00;101006.19;5110686;28;20527;-73
2023/10/14 07:07:52;;;;;;;15.18;6.18;;;;;;;21.10;100.00;101030.41;5109556;28;20043;-74
2023/10/14 07:10:19;;;;;;;14.93;6.72;;;;;;;21.62;100.00;101021.44;5110038;28;20031;-74
2023/10/14 07:12:44;;;;;;;14.85;6.05;;;;;;;20.79;100.00;100986.44;5110701;28;20032;-74
2023/10/14 07:15:12;;;;;;;18.98;4.90;;;;;;;20.84;100.00;100995.59;5111322;28;20027;-75
2023/10/14 07:17:42;;;;;;;11.77;4.90;;;;;;;21.49;100.00;101034.22;5109639;28;20077;-75
2023/10/14 07:20:12;;;;;;;36.00;7.32;;;;;;;21.01;100.00;100984.34;5111020;28;20031;-74
2023/10/14 07:22:42;;;;;;;13.55;5.40;;;;;;;21.54;100.00;101021.88;5110851;28;20054;-75
2023/10/14 07:25:11;;;;;;;13.70;5.13;;;;;;;21.10;100.00;100983.84;5109850;28;20042;-74
2023/10/14 07:27:38;;;;;;;18.35;5.30;;;;;;;21.85;100.00;101020.16;5111041;28;20110;-76
2023/10/14 07:30:15;;;;;;;14.20;5.40;;;;;;;21.30;100.00;101027.56;5110655;28;20028;-74
2023/10/14 07:32:44;;;;;;;16.45;5.40;;;;;;;20.42;100.00;101042.63;5110633;28;20472;-75
2023/10/14 07:35:12;;;;;;;9.90;5.28;;;;;;;21.77;100.00;101032.69;5113405;28;20024;-76
2023/10/14 07:37:48;;;;;;;14.52;5.43;;;;;;;21.68;100.00;100971.91;5113947;27;20032;-74
2023/10/14 07:40:27;;;;;;;13.55;5.00;;;;;;;22.29;100.00;101003.66;5114735;27;20049;-77
2023/10/14 07:42:52;;;;;;;11.40;4.53;;;;;;;21.87;100.00;101010.56;5113422;28;20176;-75
2023/10/14 07:45:29;;;;;;;14.57;5.43;;;;;;;21.76;100.00;100995.59;5115334;28;20695;-75
2023/10/14 07:47:56;;;;;;;12.27;4.85;;;;;;;22.24;100.00;101005.69;5113550;28;20042;-76
2023/10/14 07:50:23;;;;;;;13.65;5.32;;;;;;;21.76;100.00;100949.00;5113428;28;20061;-74
2023/10/14 07:52:49;;;;;;;8.70;4.82;;;;;;;22.42;100.00;100970.06;5114091;28;20050;-75
2023/10/14 07:55:22;;;;;;;15.65;5.75;;;;;;;22.52;100.00;100975.53;5114829;28;20035;-76
2023/10/14 07:57:49;;;;;;;9.73;5.20;;;;;;;22.61;100.00;100913.59;5114711;28;20120;-76
2023/10/14 08:00:15;;;;;;;12.60;4.93;;;;;;;22.98;100.00;100971.75;5113162;28;20028;-75
2023/10/14 08:02:42;;;;;;;15.90;5.47;;;;;;;22.89;100.00;100912.69;5114302;28;20042;-75
2023/10/14 08:05:13;;;;;;;7.63;4.65;;;;;;;21.89;100.00;100905.13;5113068;28;20504;-76
2023/10/14 08:07:42;;;;;;;13.68;5.18;;;;;;;22.61;100.00;100915.34;5113277;28;20031;-75
2023/10/14 08:10:17;;;;;;;13.63;5.50;;;;;;;22.76;100.00;100946.31;5114616;28;20034;-75
2023/10/14 08:12:47;;;;;;;15.18;5.55;;;;;;;22.87;100.00;100969.84;5114135;27;20038;-75
2023/10/14 08:15:14;;;;;;;14.65;5.35;;;;;;;22.97;100.00;100954.53;5113969;28;20027;-75
2023/10/14 08:17:42;;;;;;;18.08;5.10;;;;;;;22.73;100.00;100943.09;5113638;28;20122;-75
2023/10/14 08:20:12;;;;;;;15.02;4.97;;;;;;;23.29;100.00;100948.13;5113886;28;20068;-75
2023/10/14 08:22:44;;;;;;;13.02;5.10;;;;;;;23.34;100.00;100953.84;5114305;28;20545;-74
2023/10/14 08:25:09;;;;;;;15.25;6.47;;;;;;;23.65;100.00;100932.72;5112948;28;20031;-75
2023/10/14 08:27:34;;;;;;;11.43;5.15;;;;;;;23.77;100.00;100937.09;5096646;28;20039;-77
2023/10/14 08:30:02;;;;;;;13.00;4.60;;;;;;;23.45;100.00;100876.13;5092797;28;20032;-76
2023/10/14 08:32:29;;;;;;;14.27;5.20;;;;;;;22.96;100.00;100839.53;5094079;28;20024;-76
2023/10/14 08:34:54;;;;;;;9.77;4.75;;;;;;;23.66;100.00;100921.41;5093568;28;20028;-76
2023/10/14 08:37:20;;;;;;;11.23;4.85;;;;;;;24.03;100.00;100909.38;5092631;28;20036;-76
2023/10/14 08:39:45;;;;;;;13.30;5.00;;;;;;;23.93;100.00;100872.75;5092278;28;20032;-74
2023/10/14 08:42:11;;;;;;;13.50;7.18;;;;;;;23.92;100.00;100852.09;5091835;28;20036;-75
2023/10/14 08:44:42;;;;;;;15.73;5.32;;;;;;;23.99;100.00;100907.88;5093619;28;20051;-75
2023/10/14 08:47:13;;;;;;;15.52;5.05;;;;;;;24.30;100.00;100899.69;5092125;28;20581;-75
2023/10/14 08:49:41;;;;;;;10.30;5.72;;;;;;;24.38;100.00;100904.34;5091922;28;20028;-74
2023/10/14 08:52:09;;;;;;;14.35;5.85;;;;;;;23.89;100.00;100863.53;5093314;28;20168;-74
2023/10/14 08:54:36;;;;;;;15.95;6.00;;;;;;;24.73;100.00;100895.72;5092528;28;20605;-75
2023/10/14 08:57:02;;;;;;;17.52;6.13;;;;;;;24.75;100.00;100888.66;5093117;28;20024;-75
2023/10/14 08:59:28;;;;;;;18.35;5.82;;;;;;;24.58;100.00;100895.97;5091302;28;20032;-76
2023/10/14 09:01:56;;;;;;;12.95;5.20;;;;;;;24.20;100.00;100858.84;5091506;28;20550;-75
2023/10/14 09:04:29;;;;;;;13.73;5.65;;;;;;;24.65;100.00;100834.75;5092758;28;20044;-75
2023/10/14 09:07:02;;;;;;;15.55;5.53;;;;;;;24.84;100.00;100882.75;5091016;28;20115;-74
2023/10/14 09:09:28;;;;;;;14.88;5.53;;;;;;;24.90;100.00;100876.28;5092839;28;20032;-74
2023/10/14 09:11:53;;;;;;;14.02;5.30;;;;;;;25.31;100.00;100871.47;5091358;28;20093;-72
2023/10/14 09:14:18;;;;;;;10.95;4.85;;;;;;;25.03;100.00;100871.84;5091603;28;20115;-74
2023/10/14 09:16:49;;;;;;;13.95;4.85;;;;;;;24.62;100.00;100864.41;5091712;28;20096;-74
2023/10/14 09:19:15;;;;;;;15.02;5.28;;;;;;;24.74;100.00;100873.97;5100888;28;20031;-74
2023/10/14 09:21:45;;;;;;;10.57;4.78;;;;;;;24.94;100.00;100843.88;5112297;28;20032;-75
2023/10/14 09:24:11;;;;;;;15.43;5.30;;;;;;;25.12;100.00;100792.22;5110825;28;20562;-78
2023/10/14 09:26:43;;;;;;;11.63;4.57;;;;;;;24.97;100.00;100830.66;5110530;28;20023;-73
2023/10/14 09:29:09;;;;;;;17.63;5.50;;;;;;;25.74;100.00;100822.16;5110283;28;20042;-73
2023/10/14 09:31:39;;;;;;;9.32;4.47;;;;;;;25.47;100.00;100770.41;5111721;28;20513;-74
2023/10/14 09:34:08;;;;;;;12.40;4.45;;;;;;;25.23;100.00;100826.94;4751614;27;10000169;-73
2023/10/14 09:36:37;;;;;;;12.23;4.97;;;;;;;25.60;100.00;100806.75;5108652;28;20129;-74
2023/10/14 09:39:13;;;;;;;13.18;4.53;;;;;;;25.72;100.00;100757.13;5109434;27;20042;-74
2023/10/14 09:41:39;;;;;;;10.88;4.25;;;;;;;25.71;100.00;100739.84;5108079;28;20027;-71
2023/10/14 09:44:06;;;;;;;12.43;4.60;;;;;;;25.76;100.00;100789.84;5107946;28;20034;-71
2023/10/14 09:46:32;;;;;;;12.88;4.22;;;;;;;25.86;100.00;100727.38;5107349;28;20024;-75
2023/10/14 09:48:59;;;;;;;11.48;4.03;;;;;;;26.39;100.00;100776.09;5107642;28;20535;-74
2023/10/14 09:51:25;;;;;;;10.00;4.22;;;;;;;25.74;100.00;100736.16;5108820;28;20023;-72
2023/10/14 09:53:52;;;;;;;9.00;4.53;;;;;;;25.84;100.00;100699.78;5105491;28;20520;-74
2023/10/14 09:56:21;;;;;;;10.73;4.07;;;;;;;26.01;100.00;100762.66;5109413;28;20122;-74
2023/10/14 09:58:47;;;;;;;9.63;4.35;;;;;;;26.27;100.00;100706.66;5107117;28;20032;-74
2023/10/14 10:01:15;;;;;;;14.48;4.05;;;;;;;25.94;100.00;100698.09;5106481;28;20558;-70
2023/10/14 10:03:46;;;;;;;16.65;4.45;;;;;;;26.45;100.00;100726.03;5108505;28;20089;-73
2023/10/14 10:06:16;;;;;;;;;;;;;;;26.48;100.00;100730.19;5109043;28;20135;-71
2023/10/14 10:09:09;;;;;;;12.13;5.18;;;;;;;26.23;100.00;100733.94;5099412;28;20154;-71
2023/10/14 10:11:37;;;;;;;8.90;4.15;;;;;;;26.40;100.00;100711.72;5094504;28;20036;-72
2023/10/14 10:14:12;;;;;;;13.35;4.25;;;;;;;26.72;100.00;100699.44;5110924;28;20062;-73
2023/10/14 10:16:41;;;;;;;11.73;4.18;;;;;;;26.74;100.00;100694.94;5109710;28;20023;-70
2023/10/14 10:19:08;;;;;;;14.40;4.82;;;;;;;26.88;100.00;100697.22;5105591;28;20042;-73
2023/10/14 10:21:40;;;;;;;10.38;4.38;;;;;;;26.64;100.00;100667.94;5107783;28;20023;-72
2023/10/14 10:24:38;;;;;;;13.82;4.20;;;;;;;26.41;100.00;100676.84;5089519;28;20418;-72
2023/10/14 10:27:03;;;;;;;11.23;4.13;;;;;;;26.52;100.00;100676.78;5091300;28;20034;-73
2023/10/14 10:29:34;;;;;;;11.35;4.32;;;;;;;26.33;100.00;100617.47;5090623;28;20053;-65
2023/10/14 10:32:12;;;;;;;18.17;5.10;;;;;;;27.11;100.00;100645.66;5091395;28;20118;-67
2023/10/14 10:35:06;;;;;;;10.45;4.03;;;;;;;26.87;100.00;100669.47;5091408;28;20520;-68
2023/10/14 10:37:40;;;;;;;16.45;4.25;;;;;;;27.20;100.00;100674.41;5103998;28;20123;-66
2023/10/14 10:40:10;;;;;;;19.92;4.35;;;;;;;26.80;100.00;100592.63;5111241;28;20062;-68
2023/10/14 10:42:46;;;;;;;17.95;4.45;;;;;;;26.88;100.00;100638.97;5109759;28;20024;-67
2023/10/14 10:45:20;;;;;;;9.63;3.70;;;;;;;26.88;100.00;100612.88;5109260;28;20485;-67
2023/10/14 10:47:54;;;;;;;16.45;4.63;;;;;;;26.90;100.00;100630.03;5110030;28;20082;-67
2023/10/14 10:50:26;;;;;;;14.88;4.30;;;;;;;26.55;100.00;100622.56;5111212;28;20028;-67
2023/10/14 10:53:13;;;;;;;17.90;4.43;;;;;;;26.60;100.00;100638.63;5110075;28;20050;-67
2023/10/14 10:55:48;;;;;;;15.63;3.85;;;;;;;26.83;100.00;100633.31;5109830;28;20039;-67
2023/10/14 10:58:15;;;;;;;22.08;4.85;;;;;;;26.55;100.00;100577.38;5109304;28;20028;-68
2023/10/14 11:00:42;;;;;;;15.07;4.10;;;;;;;26.98;100.00;100613.72;5111794;28;20028;-68
2023/10/14 11:03:13;;;;;;;10.48;3.80;;;;;;;27.30;100.00;100562.94;5111015;28;20084;-68
2023/10/14 11:05:41;;;;;;;93.88;9.93;;;;;;;27.37;100.00;100599.84;5108773;28;20490;-67
2023/10/14 11:08:07;;;;;;;12.68;4.05;;;;;;;27.29;100.00;100542.19;5108896;28;20039;-68
2023/10/14 11:10:38;;;;;;;14.93;4.18;;;;;;;27.04;100.00;100504.34;5113466;28;20035;-68
2023/10/14 11:13:05;;;;;;;10.93;3.80;;;;;;;27.63;100.00;100513.91;5115177;28;20068;-68
2023/10/14 11:15:34;;;;;;;14.98;4.07;;;;;;;27.45;100.00;100525.03;5114977;28;20767;-65
2023/10/14 11:18:00;;;;;;;15.23;4.07;;;;;;;27.26;100.00;100464.09;5114446;28;20031;-66
2023/10/14 11:20:31;;;;;;;11.57;3.67;;;;;;;27.37;100.00;100527.50;5114416;28;20383;-65
2023/10/14 11:22:58;;;;;;;12.02;3.90;;;;;;;27.93;100.00;100538.09;5115031;28;20042;-68
2023/10/14 11:25:25;;;;;;;10.30;3.90;;;;;;;26.68;100.00;100571.94;5114952;28;20047;-66
2023/10/14 11:27:54;;;;;;;16.75;4.80;;;;;;;27.74;100.00;100539.88;5114936;28;20032;-67
2023/10/14 11:30:20;;;;;;;22.30;5.00;;;;;;;27.61;100.00;100547.19;5113369;28;20036;-67
2023/10/14 11:32:47;;;;;;;15.38;5.07;;;;;;;27.43;100.00;100494.81;5114859;28;20024;-67
2023/10/14 11:35:23;;;;;;;10.55;4.03;;;;;;;27.74;100.00;100534.66;5112901;28;20064;-67
2023/10/14 11:37:53;;;;;;;13.93;3.92;;;;;;;27.60;100.00;100535.06;5111091;28;20023;-66
2023/10/14 11:40:19;;;;;;;16.58;4.13;;;;;;;27.75;100.00;100468.38;5112605;28;20028;-67
2023/10/14 11:42:46;;;;;;;12.77;4.00;;;;;;;27.88;100.00;100481.94;5110215;28;20088;-67
2023/10/14 11:45:17;;;;;;;12.52;4.10;;;;;;;27.58;100.00;100518.72;5113282;28;20035;-67
2023/10/14 11:47:44;;;;;;;15.75;4.38;;;;;;;27.27;100.00;100529.28;5113009;28;20775;-67
2023/10/14 11:50:12;;;;;;;11.63;3.53;;;;;;;27.90;100.00;100509.63;5114636;28;20038;-69
2023/10/14 11:52:42;;;;;;;9.07;4.00;;;;;;;27.31;100.00;100451.44;5114277;28;20039;-69
2023/10/14 11:55:16;;;;;;;14.95;4.30;;;;;;;27.09;100.00;100468.22;5114092;28;20474;-69